sensor_id;sensor_type;location;lat;lon;timestamp;P1;durP1;ratioP1;P2;durP2;ratioP2
35897;SDS011;21997;47.118;15.346;2023-04-01T00:01:43;3.57;;;3.27;;
35897;SDS011;21997;47.118;15.346;2023-04-01T00:04:09;3.23;;;2.53;;
35897;SDS011;21997;47.118;15.346;2023-04-01T00:06:34;2.73;;;2.47;;
35897;SDS011;21997;47.118;15.346;2023-04-01T00:09:00;2.70;;;2.40;;
35897;SDS011;21997;47.118;15.346;2023-04-01T00:11:26;3.13;;;2.83;;
35897;SDS011;21997;47.118;15.346;2023-04-01T00:13:52;3.10;;;2.70;;
35897;SDS011;21997;47.118;15.346;2023-04-01T00:16:17;3.27;;;2.80;;
35897;SDS011;21997;47.118;15.346;2023-04-01T00:18:43;3.47;;;2.30;;
35897;SDS011;21997;47.118;15.346;2023-04-01T00:21:08;2.57;;;2.30;;
35897;SDS011;21997;47.118;15.346;2023-04-01T00:23:33;6.33;;;3.00;;
35897;SDS011;21997;47.118;15.346;2023-04-01T00:26:00;2.70;;;2.50;;
35897;SDS011;21997;47.118;15.346;2023-04-01T00:28:26;4.40;;;2.77;;
35897;SDS011;21997;47.118;15.346;2023-04-01T00:30:52;3.20;;;2.43;;
35897;SDS011;21997;47.118;15.346;2023-04-01T00:33:18;3.00;;;2.70;;
35897;SDS011;21997;47.118;15.346;2023-04-01T00:35:43;2.90;;;2.70;;
35897;SDS011;21997;47.118;15.346;2023-04-01T00:38:09;2.63;;;2.40;;
35897;SDS011;21997;47.118;15.346;2023-04-01T00:40:37;3.73;;;3.03;;
35897;SDS011;21997;47.118;15.346;2023-04-01T00:43:12;3.57;;;3.07;;
35897;SDS011;21997;47.118;15.346;2023-04-01T00:45:41;4.73;;;2.73;;
35897;SDS011;21997;47.118;15.346;2023-04-01T00:48:10;3.53;;;2.23;;
35897;SDS011;21997;47.118;15.346;2023-04-01T00:50:38;3.13;;;2.40;;
35897;SDS011;21997;47.118;15.346;2023-04-01T00:53:06;2.40;;;2.20;;
35897;SDS011;21997;47.118;15.346;2023-04-01T00:55:33;2.70;;;2.50;;
35897;SDS011;21997;47.118;15.346;2023-04-01T00:58:01;2.60;;;2.40;;
35897;SDS011;21997;47.118;15.346;2023-04-01T01:00:29;2.80;;;2.60;;
35897;SDS011;21997;47.118;15.346;2023-04-01T01:02:54;3.50;;;2.27;;
35897;SDS011;21997;47.118;15.346;2023-04-01T01:05:21;3.57;;;2.50;;
35897;SDS011;21997;47.118;15.346;2023-04-01T01:10:35;2.40;;;2.20;;
35897;SDS011;21997;47.118;15.346;2023-04-01T01:20:44;2.50;;;2.17;;
35897;SDS011;21997;47.118;15.346;2023-04-01T01:29:01;3.20;;;2.47;;
35897;SDS011;21997;47.118;15.346;2023-04-01T01:36:59;2.27;;;2.07;;
35897;SDS011;21997;47.118;15.346;2023-04-01T01:39:28;2.93;;;2.40;;
35897;SDS011;21997;47.118;15.346;2023-04-01T01:41:56;2.83;;;2.53;;
35897;SDS011;21997;47.118;15.346;2023-04-01T01:44:22;4.00;;;2.50;;
35897;SDS011;21997;47.118;15.346;2023-04-01T01:46:49;2.97;;;2.30;;
35897;SDS011;21997;47.118;15.346;2023-04-01T01:49:15;4.80;;;2.17;;
35897;SDS011;21997;47.118;15.346;2023-04-01T01:51:42;3.27;;;2.60;;
35897;SDS011;21997;47.118;15.346;2023-04-01T01:54:11;3.07;;;2.60;;
35897;SDS011;21997;47.118;15.346;2023-04-01T01:56:38;2.60;;;2.23;;
35897;SDS011;21997;47.118;15.346;2023-04-01T01:59:04;2.50;;;2.30;;
35897;SDS011;21997;47.118;15.346;2023-04-01T02:01:35;2.37;;;1.80;;
35897;SDS011;21997;47.118;15.346;2023-04-01T02:04:03;2.60;;;2.20;;
35897;SDS011;21997;47.118;15.346;2023-04-01T02:06:30;2.80;;;2.13;;
35897;SDS011;21997;47.118;15.346;2023-04-01T02:08:59;3.50;;;2.83;;
35897;SDS011;21997;47.118;15.346;2023-04-01T02:11:37;3.30;;;2.33;;
35897;SDS011;21997;47.118;15.346;2023-04-01T02:14:27;2.13;;;1.93;;
35897;SDS011;21997;47.118;15.346;2023-04-01T02:17:09;2.37;;;1.90;;
35897;SDS011;21997;47.118;15.346;2023-04-01T02:19:38;2.10;;;1.87;;
35897;SDS011;21997;47.118;15.346;2023-04-01T02:22:06;2.00;;;1.70;;
35897;SDS011;21997;47.118;15.346;2023-04-01T02:24:35;2.70;;;2.17;;
35897;SDS011;21997;47.118;15.346;2023-04-01T02:27:00;4.77;;;1.87;;
35897;SDS011;21997;47.118;15.346;2023-04-01T02:29:26;2.60;;;1.90;;
35897;SDS011;21997;47.118;15.346;2023-04-01T02:31:52;2.97;;;2.30;;
35897;SDS011;21997;47.118;15.346;2023-04-01T02:34:18;2.73;;;2.30;;
35897;SDS011;21997;47.118;15.346;2023-04-01T02:36:45;2.07;;;1.87;;
35897;SDS011;21997;47.118;15.346;2023-04-01T02:39:12;4.90;;;1.93;;
35897;SDS011;21997;47.118;15.346;2023-04-01T02:41:39;2.37;;;1.90;;
35897;SDS011;21997;47.118;15.346;2023-04-01T02:44:05;1.70;;;1.60;;
35897;SDS011;21997;47.118;15.346;2023-04-01T02:46:32;2.03;;;1.87;;
35897;SDS011;21997;47.118;15.346;2023-04-01T02:48:57;3.97;;;2.13;;
35897;SDS011;21997;47.118;15.346;2023-04-01T02:51:23;5.97;;;2.10;;
35897;SDS011;21997;47.118;15.346;2023-04-01T02:53:48;2.70;;;1.80;;
35897;SDS011;21997;47.118;15.346;2023-04-01T02:56:13;3.73;;;2.13;;
35897;SDS011;21997;47.118;15.346;2023-04-01T02:58:39;1.77;;;1.67;;
35897;SDS011;21997;47.118;15.346;2023-04-01T03:01:04;1.53;;;1.43;;
35897;SDS011;21997;47.118;15.346;2023-04-01T03:03:30;3.07;;;2.27;;
35897;SDS011;21997;47.118;15.346;2023-04-01T03:05:56;3.50;;;3.20;;
35897;SDS011;21997;47.118;15.346;2023-04-01T03:08:23;4.00;;;2.60;;
35897;SDS011;21997;47.118;15.346;2023-04-01T03:10:49;2.20;;;2.00;;
35897;SDS011;21997;47.118;15.346;2023-04-01T03:13:14;2.83;;;1.77;;
35897;SDS011;21997;47.118;15.346;2023-04-01T03:15:40;2.67;;;2.40;;
35897;SDS011;21997;47.118;15.346;2023-04-01T03:18:05;2.37;;;1.97;;
35897;SDS011;21997;47.118;15.346;2023-04-01T03:20:31;2.47;;;1.70;;
35897;SDS011;21997;47.118;15.346;2023-04-01T03:22:56;2.13;;;1.83;;
35897;SDS011;21997;47.118;15.346;2023-04-01T03:25:22;2.20;;;1.77;;
35897;SDS011;21997;47.118;15.346;2023-04-01T03:27:47;2.47;;;1.87;;
35897;SDS011;21997;47.118;15.346;2023-04-01T03:30:13;1.77;;;1.60;;
35897;SDS011;21997;47.118;15.346;2023-04-01T03:32:38;6.27;;;2.20;;
35897;SDS011;21997;47.118;15.346;2023-04-01T03:35:03;2.67;;;1.60;;
35897;SDS011;21997;47.118;15.346;2023-04-01T03:37:30;3.13;;;1.90;;
35897;SDS011;21997;47.118;15.346;2023-04-01T03:39:55;1.93;;;1.83;;
35897;SDS011;21997;47.118;15.346;2023-04-01T03:42:21;2.20;;;1.90;;
35897;SDS011;21997;47.118;15.346;2023-04-01T03:44:46;1.90;;;1.67;;
35897;SDS011;21997;47.118;15.346;2023-04-01T03:47:12;3.80;;;1.60;;
35897;SDS011;21997;47.118;15.346;2023-04-01T03:49:37;2.23;;;1.63;;
35897;SDS011;21997;47.118;15.346;2023-04-01T03:52:02;1.80;;;1.50;;
35897;SDS011;21997;47.118;15.346;2023-04-01T03:54:28;2.70;;;1.47;;
35897;SDS011;21997;47.118;15.346;2023-04-01T03:56:53;2.00;;;1.60;;
35897;SDS011;21997;47.118;15.346;2023-04-01T03:59:20;4.33;;;1.90;;
35897;SDS011;21997;47.118;15.346;2023-04-01T04:01:46;2.23;;;1.77;;
35897;SDS011;21997;47.118;15.346;2023-04-01T04:04:12;2.03;;;1.70;;
35897;SDS011;21997;47.118;15.346;2023-04-01T04:06:38;2.07;;;1.87;;
35897;SDS011;21997;47.118;15.346;2023-04-01T04:09:03;2.13;;;1.50;;
35897;SDS011;21997;47.118;15.346;2023-04-01T04:11:30;2.37;;;1.67;;
35897;SDS011;21997;47.118;15.346;2023-04-01T04:13:56;1.50;;;1.40;;
35897;SDS011;21997;47.118;15.346;2023-04-01T04:16:21;2.47;;;1.80;;
35897;SDS011;21997;47.118;15.346;2023-04-01T04:18:46;2.80;;;1.70;;
35897;SDS011;21997;47.118;15.346;2023-04-01T04:21:13;1.50;;;1.40;;
35897;SDS011;21997;47.118;15.346;2023-04-01T04:23:40;1.60;;;1.50;;
35897;SDS011;21997;47.118;15.346;2023-04-01T04:26:06;1.63;;;1.53;;
35897;SDS011;21997;47.118;15.346;2023-04-01T04:28:33;1.40;;;1.20;;
35897;SDS011;21997;47.118;15.346;2023-04-01T04:30:59;3.23;;;1.20;;
35897;SDS011;21997;47.118;15.346;2023-04-01T04:33:25;2.90;;;1.30;;
35897;SDS011;21997;47.118;15.346;2023-04-01T04:35:50;1.90;;;1.70;;
35897;SDS011;21997;47.118;15.346;2023-04-01T04:38:16;1.27;;;1.17;;
35897;SDS011;21997;47.118;15.346;2023-04-01T04:40:42;3.23;;;1.77;;
35897;SDS011;21997;47.118;15.346;2023-04-01T04:43:12;2.30;;;2.10;;
35897;SDS011;21997;47.118;15.346;2023-04-01T04:45:39;2.03;;;1.70;;
35897;SDS011;21997;47.118;15.346;2023-04-01T04:48:05;2.27;;;1.90;;
35897;SDS011;21997;47.118;15.346;2023-04-01T04:50:32;2.60;;;2.40;;
35897;SDS011;21997;47.118;15.346;2023-04-01T04:52:57;9.30;;;7.47;;
35897;SDS011;21997;47.118;15.346;2023-04-01T04:55:23;9.00;;;6.17;;
35897;SDS011;21997;47.118;15.346;2023-04-01T04:57:48;3.03;;;2.53;;
35897;SDS011;21997;47.118;15.346;2023-04-01T05:00:14;6.87;;;3.13;;
35897;SDS011;21997;47.118;15.346;2023-04-01T05:02:39;3.40;;;2.90;;
35897;SDS011;21997;47.118;15.346;2023-04-01T05:05:05;12.83;;;7.50;;
35897;SDS011;21997;47.118;15.346;2023-04-01T05:07:30;8.80;;;7.90;;
35897;SDS011;21997;47.118;15.346;2023-04-01T05:09:56;9.13;;;6.20;;
35897;SDS011;21997;47.118;15.346;2023-04-01T05:12:21;5.77;;;3.70;;
35897;SDS011;21997;47.118;15.346;2023-04-01T05:14:46;3.77;;;2.63;;
35897;SDS011;21997;47.118;15.346;2023-04-01T05:17:12;2.37;;;2.17;;
35897;SDS011;21997;47.118;15.346;2023-04-01T05:19:38;3.50;;;2.40;;
35897;SDS011;21997;47.118;15.346;2023-04-01T05:22:04;5.60;;;4.17;;
35897;SDS011;21997;47.118;15.346;2023-04-01T05:24:30;14.47;;;10.23;;
35897;SDS011;21997;47.118;15.346;2023-04-01T05:26:56;18.03;;;12.77;;
35897;SDS011;21997;47.118;15.346;2023-04-01T05:29:22;12.20;;;8.23;;
35897;SDS011;21997;47.118;15.346;2023-04-01T05:31:48;9.93;;;6.77;;
35897;SDS011;21997;47.118;15.346;2023-04-01T05:34:14;4.23;;;3.20;;
35897;SDS011;21997;47.118;15.346;2023-04-01T05:36:39;7.13;;;4.67;;
35897;SDS011;21997;47.118;15.346;2023-04-01T05:39:06;7.20;;;4.47;;
35897;SDS011;21997;47.118;15.346;2023-04-01T05:41:34;4.23;;;3.30;;
35897;SDS011;21997;47.118;15.346;2023-04-01T05:44:00;5.50;;;3.53;;
35897;SDS011;21997;47.118;15.346;2023-04-01T05:46:25;3.50;;;2.50;;
35897;SDS011;21997;47.118;15.346;2023-04-01T05:48:51;2.60;;;2.40;;
35897;SDS011;21997;47.118;15.346;2023-04-01T05:51:16;3.63;;;2.87;;
35897;SDS011;21997;47.118;15.346;2023-04-01T05:53:42;2.70;;;2.30;;
35897;SDS011;21997;47.118;15.346;2023-04-01T05:56:08;3.10;;;2.17;;
35897;SDS011;21997;47.118;15.346;2023-04-01T05:58:34;2.60;;;1.97;;
35897;SDS011;21997;47.118;15.346;2023-04-01T06:01:04;2.40;;;2.07;;
35897;SDS011;21997;47.118;15.346;2023-04-01T06:03:34;2.40;;;2.00;;
35897;SDS011;21997;47.118;15.346;2023-04-01T06:06:00;7.77;;;7.07;;
35897;SDS011;21997;47.118;15.346;2023-04-01T06:08:30;5.13;;;4.63;;
35897;SDS011;21997;47.118;15.346;2023-04-01T06:13:50;6.17;;;4.87;;
35897;SDS011;21997;47.118;15.346;2023-04-01T06:19:39;4.37;;;3.97;;
35897;SDS011;21997;47.118;15.346;2023-04-01T06:41:45;4.50;;;2.43;;
35897;SDS011;21997;47.118;15.346;2023-04-01T06:44:24;3.80;;;2.10;;
35897;SDS011;21997;47.118;15.346;2023-04-01T06:52:55;3.60;;;2.20;;
35897;SDS011;21997;47.118;15.346;2023-04-01T06:55:46;2.80;;;2.17;;
35897;SDS011;21997;47.118;15.346;2023-04-01T06:58:20;5.03;;;2.60;;
35897;SDS011;21997;47.118;15.346;2023-04-01T07:00:46;4.07;;;2.93;;
35897;SDS011;21997;47.118;15.346;2023-04-01T07:05:47;3.23;;;2.93;;
35897;SDS011;21997;47.118;15.346;2023-04-01T07:08:23;3.37;;;3.00;;
35897;SDS011;21997;47.118;15.346;2023-04-01T07:10:53;3.50;;;3.20;;
35897;SDS011;21997;47.118;15.346;2023-04-01T07:18:42;5.20;;;4.13;;
35897;SDS011;21997;47.118;15.346;2023-04-01T07:21:11;5.40;;;4.30;;
35897;SDS011;21997;47.118;15.346;2023-04-01T07:23:51;3.77;;;3.20;;
35897;SDS011;21997;47.118;15.346;2023-04-01T07:26:24;3.77;;;3.20;;
35897;SDS011;21997;47.118;15.346;2023-04-01T07:28:51;7.47;;;3.50;;
35897;SDS011;21997;47.118;15.346;2023-04-01T07:37:13;2.47;;;2.07;;
35897;SDS011;21997;47.118;15.346;2023-04-01T07:40:00;7.77;;;6.03;;
35897;SDS011;21997;47.118;15.346;2023-04-01T07:48:21;2.30;;;1.80;;
35897;SDS011;21997;47.118;15.346;2023-04-01T07:53:36;3.53;;;1.70;;
35897;SDS011;21997;47.118;15.346;2023-04-01T07:56:08;2.60;;;1.40;;
35897;SDS011;21997;47.118;15.346;2023-04-01T07:58:49;2.40;;;1.60;;
35897;SDS011;21997;47.118;15.346;2023-04-01T08:14:30;1.40;;;1.10;;
35897;SDS011;21997;47.118;15.346;2023-04-01T08:22:36;4.03;;;2.13;;
35897;SDS011;21997;47.118;15.346;2023-04-01T08:25:05;1.10;;;1.00;;
35897;SDS011;21997;47.118;15.346;2023-04-01T08:27:37;1.83;;;1.00;;
35897;SDS011;21997;47.118;15.346;2023-04-01T08:30:17;1.03;;;0.80;;
35897;SDS011;21997;47.118;15.346;2023-04-01T08:33:05;1.33;;;0.87;;
35897;SDS011;21997;47.118;15.346;2023-04-01T08:35:42;1.00;;;0.80;;
35897;SDS011;21997;47.118;15.346;2023-04-01T08:38:12;0.73;;;0.73;;
35897;SDS011;21997;47.118;15.346;2023-04-01T08:40:54;1.00;;;0.70;;
35897;SDS011;21997;47.118;15.346;2023-04-01T09:05:35;1.40;;;0.70;;
35897;SDS011;21997;47.118;15.346;2023-04-01T09:27:32;0.20;;;0.20;;
35897;SDS011;21997;47.118;15.346;2023-04-01T09:40:44;0.50;;;0.30;;
35897;SDS011;21997;47.118;15.346;2023-04-01T09:51:55;0.13;;;0.13;;
35897;SDS011;21997;47.118;15.346;2023-04-01T10:00:21;0.10;;;0.10;;
35897;SDS011;21997;47.118;15.346;2023-04-01T10:35:45;2.03;;;0.43;;
35897;SDS011;21997;47.118;15.346;2023-04-01T10:38:28;0.20;;;0.20;;
35897;SDS011;21997;47.118;15.346;2023-04-01T10:49:44;1.47;;;0.30;;
35897;SDS011;21997;47.118;15.346;2023-04-01T11:35:25;0.90;;;0.40;;
35897;SDS011;21997;47.118;15.346;2023-04-01T11:38:23;3.50;;;1.27;;
35897;SDS011;21997;47.118;15.346;2023-04-01T11:52:18;0.10;;;0.10;;
35897;SDS011;21997;47.118;15.346;2023-04-01T11:54:54;0.50;;;0.30;;
35897;SDS011;21997;47.118;15.346;2023-04-01T12:09:20;0.10;;;0.10;;
35897;SDS011;21997;47.118;15.346;2023-04-01T12:14:30;2.33;;;1.20;;
35897;SDS011;21997;47.118;15.346;2023-04-01T12:19:47;0.27;;;0.20;;
35897;SDS011;21997;47.118;15.346;2023-04-01T12:48:19;0.60;;;0.50;;
35897;SDS011;21997;47.118;15.346;2023-04-01T12:56:02;1.17;;;0.57;;
35897;SDS011;21997;47.118;15.346;2023-04-01T13:03:43;0.20;;;0.20;;
35897;SDS011;21997;47.118;15.346;2023-04-01T13:11:39;1.03;;;0.53;;
35897;SDS011;21997;47.118;15.346;2023-04-01T13:17:29;1.43;;;0.73;;
35897;SDS011;21997;47.118;15.346;2023-04-01T13:25:50;8.87;;;4.00;;
35897;SDS011;21997;47.118;15.346;2023-04-01T13:28:24;16.67;;;5.50;;
35897;SDS011;21997;47.118;15.346;2023-04-01T13:31:06;14.53;;;6.77;;
35897;SDS011;21997;47.118;15.346;2023-04-01T13:42:11;1.47;;;0.20;;
35897;SDS011;21997;47.118;15.346;2023-04-01T13:47:11;0.63;;;0.30;;
35897;SDS011;21997;47.118;15.346;2023-04-01T13:52:30;4.03;;;2.03;;
35897;SDS011;21997;47.118;15.346;2023-04-01T14:20:22;0.17;;;0.10;;
35897;SDS011;21997;47.118;15.346;2023-04-01T14:42:15;0.20;;;0.20;;
35897;SDS011;21997;47.118;15.346;2023-04-01T14:50:25;0.13;;;0.10;;
35897;SDS011;21997;47.118;15.346;2023-04-01T14:55:50;0.20;;;0.20;;
35897;SDS011;21997;47.118;15.346;2023-04-01T14:58:21;0.20;;;0.20;;
35897;SDS011;21997;47.118;15.346;2023-04-01T15:03:36;0.10;;;0.10;;
35897;SDS011;21997;47.118;15.346;2023-04-01T15:09:00;0.40;;;0.40;;
35897;SDS011;21997;47.118;15.346;2023-04-01T15:11:38;0.40;;;0.20;;
35897;SDS011;21997;47.118;15.346;2023-04-01T15:14:16;0.27;;;0.10;;
35897;SDS011;21997;47.118;15.346;2023-04-01T15:22:56;0.13;;;0.10;;
35897;SDS011;21997;47.118;15.346;2023-04-01T15:28:24;0.23;;;0.20;;
35897;SDS011;21997;47.118;15.346;2023-04-01T15:30:56;0.50;;;0.40;;
35897;SDS011;21997;47.118;15.346;2023-04-01T15:33:54;0.40;;;0.30;;
35897;SDS011;21997;47.118;15.346;2023-04-01T15:47:58;0.10;;;0.10;;
35897;SDS011;21997;47.118;15.346;2023-04-01T15:55:48;0.70;;;0.47;;
35897;SDS011;21997;47.118;15.346;2023-04-01T16:12:04;0.40;;;0.27;;
35897;SDS011;21997;47.118;15.346;2023-04-01T16:23:26;0.97;;;0.50;;
35897;SDS011;21997;47.118;15.346;2023-04-01T16:26:20;0.23;;;0.23;;
35897;SDS011;21997;47.118;15.346;2023-04-01T16:29:26;1.13;;;0.60;;
35897;SDS011;21997;47.118;15.346;2023-04-01T16:39:47;1.67;;;1.57;;
35897;SDS011;21997;47.118;15.346;2023-04-01T16:47:35;2.43;;;2.23;;
35897;SDS011;21997;47.118;15.346;2023-04-01T16:50:15;1.17;;;1.07;;
35897;SDS011;21997;47.118;15.346;2023-04-01T16:55:43;8.20;;;3.37;;
35897;SDS011;21997;47.118;15.346;2023-04-01T17:03:39;1.60;;;1.07;;
35897;SDS011;21997;47.118;15.346;2023-04-01T17:09:40;5.67;;;2.63;;
35897;SDS011;21997;47.118;15.346;2023-04-01T17:12:24;4.60;;;3.30;;
35897;SDS011;21997;47.118;15.346;2023-04-01T17:18:07;2.80;;;2.57;;
35897;SDS011;21997;47.118;15.346;2023-04-01T17:31:57;2.60;;;2.20;;
35897;SDS011;21997;47.118;15.346;2023-04-01T17:42:38;0.97;;;0.60;;
35897;SDS011;21997;47.118;15.346;2023-04-01T17:45:20;1.00;;;0.70;;
35897;SDS011;21997;47.118;15.346;2023-04-01T17:58:39;3.17;;;2.87;;
35897;SDS011;21997;47.118;15.346;2023-04-01T18:02:11;3.50;;;2.90;;
35897;SDS011;21997;47.118;15.346;2023-04-01T18:04:23;3.10;;;2.80;;
35897;SDS011;21997;47.118;15.346;2023-04-01T18:10:04;3.33;;;1.80;;
35897;SDS011;21997;47.118;15.346;2023-04-01T18:15:55;2.03;;;1.30;;
35897;SDS011;21997;47.118;15.346;2023-04-01T18:21:49;2.27;;;1.80;;
35897;SDS011;21997;47.118;15.346;2023-04-01T18:25:05;0.93;;;0.70;;
35897;SDS011;21997;47.118;15.346;2023-04-01T18:27:24;1.20;;;1.10;;
35897;SDS011;21997;47.118;15.346;2023-04-01T18:32:52;6.67;;;4.50;;
35897;SDS011;21997;47.118;15.346;2023-04-01T18:35:27;5.17;;;3.60;;
35897;SDS011;21997;47.118;15.346;2023-04-01T18:38:06;2.50;;;2.13;;
35897;SDS011;21997;47.118;15.346;2023-04-01T18:46:05;3.30;;;2.70;;
35897;SDS011;21997;47.118;15.346;2023-04-01T18:48:57;3.80;;;3.40;;
35897;SDS011;21997;47.118;15.346;2023-04-01T18:51:54;2.27;;;1.83;;
35897;SDS011;21997;47.118;15.346;2023-04-01T18:54:43;2.30;;;1.47;;
35897;SDS011;21997;47.118;15.346;2023-04-01T18:57:14;3.23;;;1.30;;
35897;SDS011;21997;47.118;15.346;2023-04-01T18:59:46;2.20;;;0.50;;
35897;SDS011;21997;47.118;15.346;2023-04-01T19:05:12;1.30;;;0.80;;
35897;SDS011;21997;47.118;15.346;2023-04-01T19:07:43;2.50;;;1.10;;
35897;SDS011;21997;47.118;15.346;2023-04-01T19:13:41;1.47;;;0.83;;
35897;SDS011;21997;47.118;15.346;2023-04-01T19:21:56;1.37;;;0.97;;
35897;SDS011;21997;47.118;15.346;2023-04-01T19:27:29;2.17;;;1.97;;
35897;SDS011;21997;47.118;15.346;2023-04-01T19:38:38;0.70;;;0.70;;
35897;SDS011;21997;47.118;15.346;2023-04-01T19:44:12;1.53;;;0.70;;
35897;SDS011;21997;47.118;15.346;2023-04-01T19:46:54;1.37;;;0.63;;
35897;SDS011;21997;47.118;15.346;2023-04-01T19:52:19;1.00;;;0.90;;
35897;SDS011;21997;47.118;15.346;2023-04-01T19:55:09;1.93;;;1.23;;
35897;SDS011;21997;47.118;15.346;2023-04-01T20:00:37;2.10;;;1.23;;
35897;SDS011;21997;47.118;15.346;2023-04-01T20:03:30;2.63;;;1.70;;
35897;SDS011;21997;47.118;15.346;2023-04-01T20:08:36;1.30;;;1.20;;
35897;SDS011;21997;47.118;15.346;2023-04-01T20:13:54;2.70;;;1.60;;
35897;SDS011;21997;47.118;15.346;2023-04-01T20:22:24;4.33;;;2.70;;
35897;SDS011;21997;47.118;15.346;2023-04-01T20:36:58;3.63;;;2.37;;
35897;SDS011;21997;47.118;15.346;2023-04-01T20:39:39;2.70;;;1.97;;
35897;SDS011;21997;47.118;15.346;2023-04-01T20:42:24;2.67;;;1.90;;
35897;SDS011;21997;47.118;15.346;2023-04-01T20:51:03;5.80;;;3.30;;
35897;SDS011;21997;47.118;15.346;2023-04-01T20:53:43;2.87;;;1.80;;
35897;SDS011;21997;47.118;15.346;2023-04-01T20:56:37;2.10;;;1.40;;
35897;SDS011;21997;47.118;15.346;2023-04-01T21:05:09;1.63;;;0.80;;
35897;SDS011;21997;47.118;15.346;2023-04-01T21:07:32;3.43;;;0.77;;
35897;SDS011;21997;47.118;15.346;2023-04-01T21:24:23;2.50;;;1.47;;
35897;SDS011;21997;47.118;15.346;2023-04-01T21:38:06;3.00;;;1.80;;
35897;SDS011;21997;47.118;15.346;2023-04-01T21:54:36;5.00;;;2.70;;
35897;SDS011;21997;47.118;15.346;2023-04-01T21:57:35;4.03;;;3.07;;
35897;SDS011;21997;47.118;15.346;2023-04-01T22:05:19;3.43;;;2.90;;
35897;SDS011;21997;47.118;15.346;2023-04-01T22:13:26;5.77;;;3.30;;
35897;SDS011;21997;47.118;15.346;2023-04-01T22:18:53;5.67;;;2.83;;
35897;SDS011;21997;47.118;15.346;2023-04-01T22:21:30;5.60;;;2.87;;
35897;SDS011;21997;47.118;15.346;2023-04-01T22:26:29;7.70;;;4.57;;
35897;SDS011;21997;47.118;15.346;2023-04-01T22:29:46;8.67;;;4.50;;
35897;SDS011;21997;47.118;15.346;2023-04-01T22:34:50;4.93;;;2.80;;
35897;SDS011;21997;47.118;15.346;2023-04-01T22:51:09;5.60;;;2.43;;
35897;SDS011;21997;47.118;15.346;2023-04-01T22:56:11;2.83;;;1.60;;
35897;SDS011;21997;47.118;15.346;2023-04-01T22:58:41;2.73;;;1.67;;
35897;SDS011;21997;47.118;15.346;2023-04-01T23:01:12;4.33;;;1.90;;
35897;SDS011;21997;47.118;15.346;2023-04-01T23:03:42;4.13;;;2.20;;
35897;SDS011;21997;47.118;15.346;2023-04-01T23:06:15;3.90;;;2.20;;
35897;SDS011;21997;47.118;15.346;2023-04-01T23:11:35;4.20;;;2.50;;
35897;SDS011;21997;47.118;15.346;2023-04-01T23:16:51;3.03;;;2.07;;
35897;SDS011;21997;47.118;15.346;2023-04-01T23:24:46;4.63;;;2.57;;
35897;SDS011;21997;47.118;15.346;2023-04-01T23:27:30;4.53;;;2.80;;
35897;SDS011;21997;47.118;15.346;2023-04-01T23:30:00;6.27;;;2.60;;
35897;SDS011;21997;47.118;15.346;2023-04-01T23:32:26;4.70;;;2.57;;
35897;SDS011;21997;47.118;15.346;2023-04-01T23:34:55;7.23;;;3.53;;
35897;SDS011;21997;47.118;15.346;2023-04-01T23:37:22;7.23;;;4.00;;
35897;SDS011;21997;47.118;15.346;2023-04-01T23:42:29;7.73;;;3.73;;
35897;SDS011;21997;47.118;15.346;2023-04-01T23:45:03;4.27;;;3.00;;
35897;SDS011;21997;47.118;15.346;2023-04-01T23:47:31;3.80;;;2.43;;
35897;SDS011;21997;47.118;15.346;2023-04-01T23:49:59;3.63;;;2.13;;
35897;SDS011;21997;47.118;15.346;2023-04-01T23:52:30;3.60;;;2.57;;
35897;SDS011;21997;47.118;15.346;2023-04-01T23:55:12;4.53;;;2.17;;
35897;SDS011;21997;47.118;15.346;2023-04-01T23:57:40;5.93;;;2.33;;
